Troy, NY

9:47 PM EDT on October 22, 2014 (GMT -0400)
Taborton Mountain | Change Station
CLOSE
Current Station
Personal Weather Station
Location: Averill Park, NY
Elevation: 1296 ft
Nearby Weather Stations

Elev 1296 ft 42.61 °N, 73.48 °W | Updated 15 seconds ago

Overcast
Overcast
46.4 °F
Feels Like 46 °F
N
2.0
Wind Variable Wind from North
Gusts 11.0 mph

Today
High -- | Low -- °F
--% Chance of Precip.
Yesterday
High -- | Low -- °F
Precip. -- in
7:16 AM 6:01 PM
Waning Crescent, 1% visible
Pressure 29.98 in
Visibility 8.0 miles
Clouds Few 2200 ft
Overcast 3500 ft
Windchill 46 °F
Dew Point 45 °F
Humidity 94%
Rainfall 0.15 in
Snow Depth Not available.
UV 0.0 out of 12
Pollen .10 out of 12
PM2.5 Good
Flu Activity Sporadic
METAR KALB 230051Z 01010G20KT 8SM -RA FEW022 OVC035 11/07 A2998 RMK AO2 SLP151 P0001 T01060067

More Conditions Fewer Conditions

Pressure 29.98 in
Visibility 8.0 miles
Clouds Few 2200 ft
Overcast 3500 ft
Windchill 46 °F
Dew Point 45 °F
Humidity 94%
Rainfall 0.15 in
Snow Depth Not available.
UV 0.0 out of 12
Pollen .10 out of 12
PM2.5 Good
Flu Activity Sporadic
METAR KALB 230051Z 01010G20KT 8SM -RA FEW022 OVC035 11/07 A2998 RMK AO2 SLP151 P0001 T01060067

More Conditions Fewer Conditions

10-Day Weather Forecast

Almanac

Astronomy

Oct. 22, 2014 Rise Set
Actual Time 7:16 AM EDT 6:01 PM EDT
Civil Twilight 6:47 AM EDT 6:29 PM EDT
Nautical Twilight 6:14 AM EDT 7:02 PM EDT
Astronomical Twilight 5:41 AM EDT 7:35 PM EDT
Moon 5:53 AM EDT (10/22) 5:27 PM EDT (10/22)
Length of Visible Light 11h 42m
Length of Day
10h 45m
Tomorrow will be 2m 43s shorter.
Waning Crescent, 1% of the Moon is Illuminated
Today
Waning Crescent
Oct 23
New
Oct 30
First Quarter
Nov 6
Full
Nov 14
Last Quarter

Today's Extremes

State Highs State Lows

Community

WunderPhotos

Upload Photos

1,764,108 photos uploaded!

Nearby

Air Quality

  Air Quality AQ Index Pollutant
Yesterday Good
PM2.5
Yesterday Good
OZONE
Current Good
PM2.5
Wednesday Good
PM2.5
Thursday Good
PM2.5

Snow Depth

Station Depth Elevation
No new snow has been reported.

Earthquake Activity

City Distance Mag. Time & Date
No recent earthquake activity has been reported nearby.
Minimum magnitude displayed is 2.5.

Coastal Water Temperatures

Place Temperature
No Stations Reporting

Nearby Weather Stations